Time;durP1;ratioP1;P1;durP2;ratioP2;P2;SDS_P1;SDS_P2;PMS_P1;PMS_P2;Temp;Humidity;BMP_temperature;BMP_pressure;BME280_temperature;BME280_humidity;BME280_pressure;Samples;Min_cycle;Max_cycle;Signal;HPM_P1;HPM_P2
2022/12/16 00:01:27;;;;;;;47.35;25.60;;;-2.40;63.90;;;;;;5029546;28;20045;-51
2022/12/16 00:03:56;;;;;;;55.45;26.45;;;-2.40;64.60;;;;;;5032651;28;20037;-50
2022/12/16 00:06:28;;;;;;;54.28;25.65;;;-2.40;63.90;;;;;;5041977;28;20037;-55
2022/12/16 00:08:55;;;;;;;49.47;27.65;;;-2.40;63.90;;;;;;5030284;28;20041;-52
2022/12/16 00:11:23;;;;;;;55.10;27.38;;;-2.50;63.80;;;;;;5029372;28;20069;-51
2022/12/16 00:13:52;;;;;;;53.70;27.45;;;-2.50;63.80;;;;;;5028587;28;20048;-55
2022/12/16 00:16:21;;;;;;;46.70;25.20;;;-2.50;63.90;;;;;;5049220;28;20041;-51
2022/12/16 00:18:50;;;;;;;49.95;24.67;;;-2.50;64.00;;;;;;5041522;28;20498;-52
2022/12/16 00:21:18;;;;;;;49.40;27.13;;;-2.50;64.30;;;;;;5061666;22;20045;-55
2022/12/16 00:23:45;;;;;;;51.13;25.52;;;-2.50;64.50;;;;;;5023104;28;20053;-55
2022/12/16 00:26:16;;;;;;;;;;;-2.50;64.50;;;;;;5025087;28;20397;-56
2022/12/16 00:28:45;;;;;;;45.20;23.50;;;-2.50;64.40;;;;;;5024897;28;19955;-57
2022/12/16 00:31:14;;;;;;;54.30;24.67;;;-2.50;64.30;;;;;;5025648;28;20068;-55
2022/12/16 00:33:41;;;;;;;50.10;25.13;;;-2.50;64.20;;;;;;5030482;28;20591;-54
2022/12/16 00:36:08;;;;;;;48.80;25.35;;;-2.50;64.10;;;;;;5046050;28;20037;-54
2022/12/16 00:38:42;;;;;;;52.78;26.48;;;-2.50;64.10;;;;;;5041882;28;20102;-52
2022/12/16 00:41:08;;;;;;;53.88;26.48;;;-2.50;64.10;;;;;;5041366;28;20109;-54
2022/12/16 00:43:35;;;;;;;50.05;27.27;;;-2.50;64.20;;;;;;5035956;28;20049;-58
2022/12/16 00:46:04;;;;;;;55.25;26.90;;;-2.50;64.10;;;;;;5040345;28;20099;-55
2022/12/16 00:48:31;;;;;;;51.22;27.13;;;-2.50;64.20;;;;;;5049264;28;20056;-54
2022/12/16 00:51:00;;;;;;;58.13;27.92;;;-2.50;64.20;;;;;;5038540;28;20060;-55
2022/12/16 00:53:27;;;;;;;48.88;25.42;;;-2.50;64.10;;;;;;5037100;28;20518;-55
2022/12/16 00:56:08;;;;;;;53.95;29.63;;;-2.60;64.10;;;;;;5029086;28;20050;-53
2022/12/16 00:58:36;;;;;;;46.45;25.38;;;-2.50;64.20;;;;;;5035710;28;20107;-57
2022/12/16 01:01:03;;;;;;;48.70;25.20;;;-2.50;64.30;;;;;;5030903;28;20512;-54
2022/12/16 01:03:30;;;;;;;50.05;26.77;;;-2.50;64.20;;;;;;5020333;28;20585;-57
2022/12/16 01:05:59;;;;;;;53.13;26.88;;;-2.50;64.10;;;;;;5036492;28;20037;-55
2022/12/16 01:08:28;;;;;;;47.05;26.23;;;-2.50;64.10;;;;;;5024194;28;20041;-55
2022/12/16 01:10:58;;;;;;;47.33;27.02;;;-2.50;64.00;;;;;;5022556;28;20041;-56
2022/12/16 01:13:25;;;;;;;51.38;27.38;;;-2.60;64.00;;;;;;5041459;28;20116;-58
2022/12/16 01:15:52;;;;;;;49.50;26.80;;;-2.50;64.00;;;;;;5048995;28;20421;-56
2022/12/16 01:18:20;;;;;;;55.60;28.25;;;-2.60;64.10;;;;;;5039765;28;20072;-55
2022/12/16 01:20:49;;;;;;;48.78;26.27;;;-2.60;64.30;;;;;;5035715;28;20060;-53
2022/12/16 01:23:16;;;;;;;48.25;25.95;;;-2.60;64.50;;;;;;5044419;28;20041;-59
2022/12/16 01:25:42;;;;;;;53.72;27.88;;;-2.60;64.50;;;;;;5030169;28;20042;-57
2022/12/16 01:28:09;;;;;;;43.85;25.63;;;-2.50;64.50;;;;;;5029164;28;20041;-51
2022/12/16 01:30:38;;;;;;;57.13;26.77;;;-2.60;64.40;;;;;;5046634;28;20052;-54
2022/12/16 01:33:05;;;;;;;55.42;27.88;;;-2.50;64.40;;;;;;5029164;28;20051;-55
2022/12/16 01:35:34;;;;;;;43.75;25.35;;;-2.50;64.30;;;;;;5028397;28;20048;-54
2022/12/16 01:38:21;;;;;;;48.38;24.65;;;-2.50;64.20;;;;;;5030144;28;20037;-58
2022/12/16 01:40:52;;;;;;;55.78;28.02;;;-2.50;64.10;;;;;;5045463;28;20538;-56
2022/12/16 01:43:25;;;;;;;36.80;19.63;;;-2.50;64.00;;;;;;5045024;28;20133;-57
2022/12/16 01:46:13;;;;;;;51.63;24.88;;;-2.50;64.00;;;;;;5048772;28;20069;-58
2022/12/16 01:48:47;;;;;;;52.15;27.17;;;-2.50;63.80;;;;;;5036505;28;20041;-55
2022/12/16 01:51:37;;;;;;;55.95;25.38;;;-2.50;63.90;;;;;;5028364;28;20088;-54
2022/12/16 01:54:06;;;;;;;49.50;25.48;;;-2.60;63.80;;;;;;5028928;28;20053;-52
2022/12/16 01:56:40;;;;;;;54.17;27.30;;;-2.60;63.90;;;;;;5023008;28;20544;-56
2022/12/16 01:59:12;;;;;;;52.10;25.25;;;-2.60;63.90;;;;;;5018749;28;20068;-56
2022/12/16 02:01:39;;;;;;;53.05;27.52;;;-2.60;63.80;;;;;;5036092;28;20052;-53
2022/12/16 02:04:08;;;;;;;50.33;26.33;;;-2.60;63.90;;;;;;5028221;28;20037;-55
2022/12/16 02:06:37;;;;;;;46.15;25.80;;;-2.60;63.80;;;;;;5034498;28;20571;-56
2022/12/16 02:09:07;;;;;;;50.63;24.77;;;-2.60;63.90;;;;;;5043314;28;20029;-57
2022/12/16 02:12:04;;;;;;;50.05;25.13;;;-2.60;64.20;;;;;;5028167;28;20076;-53
2022/12/16 02:14:49;;;;;;;45.00;24.13;;;-2.60;64.00;;;;;;5026825;28;20080;-57
2022/12/16 02:17:26;;;;;;;45.35;23.88;;;-2.60;64.00;;;;;;5043106;28;20044;-55
2022/12/16 02:20:35;;;;;;;44.10;23.15;;;-2.60;64.00;;;;;;5043218;28;20116;-55
2022/12/16 02:23:15;;;;;;;45.75;23.73;;;-2.60;63.90;;;;;;5040714;28;20038;-57
2022/12/16 02:26:11;;;;;;;47.65;23.50;;;-2.60;63.90;;;;;;5050155;28;20064;-57
2022/12/16 02:29:21;;;;;;;42.67;24.23;;;-2.60;63.90;;;;;;5016202;28;20593;-56
2022/12/16 02:32:22;;;;;;;45.70;24.58;;;-2.60;63.90;;;;;;5028884;28;20149;-55
2022/12/16 02:35:24;;;;;;;50.25;25.58;;;-2.60;64.10;;;;;;5010845;28;20057;-56
2022/12/16 02:38:17;;;;;;;51.75;27.60;;;-2.60;64.40;;;;;;5024678;28;20037;-56
2022/12/16 02:40:47;;;;;;;49.70;24.42;;;-2.50;64.60;;;;;;5032022;28;20426;-54
2022/12/16 02:43:33;;;;;;;51.03;25.85;;;-2.50;64.80;;;;;;5029864;28;20045;-54
2022/12/16 02:46:02;;;;;;;52.08;26.67;;;-2.50;64.90;;;;;;5045034;28;20041;-52
2022/12/16 02:48:31;;;;;;;50.13;26.85;;;-2.40;64.90;;;;;;5044086;28;20055;-52
2022/12/16 02:50:57;;;;;;;47.92;24.42;;;-2.30;64.90;;;;;;5051299;28;20111;-54
2022/12/16 02:53:24;;;;;;;51.67;27.23;;;-2.40;64.90;;;;;;5042919;28;20049;-56
2022/12/16 02:56:39;;;;;;;48.85;25.60;;;-2.30;65.00;;;;;;5047890;28;20564;-55
2022/12/16 02:59:41;;;;;;;50.72;27.00;;;-2.30;64.90;;;;;;5034334;28;20037;-52
2022/12/16 03:02:33;;;;;;;45.08;24.33;;;-2.30;64.80;;;;;;5033319;28;20045;-52
2022/12/16 03:05:13;;;;;;;47.67;24.92;;;-2.20;64.80;;;;;;5041792;28;20461;-53
2022/12/16 03:07:41;;;;;;;46.05;24.67;;;-2.20;64.60;;;;;;5050078;28;20072;-55
2022/12/16 03:10:13;;;;;;;52.40;26.13;;;-2.10;64.60;;;;;;5044038;28;20648;-52
2022/12/16 03:12:42;;;;;;;47.72;25.45;;;-2.20;64.60;;;;;;5045011;28;20045;-52
2022/12/16 03:15:17;;;;;;;47.30;25.42;;;-2.20;64.60;;;;;;5045860;28;20137;-57
2022/12/16 03:17:48;;;;;;;43.72;25.88;;;-2.20;64.60;;;;;;5050235;28;20094;-56
2022/12/16 03:20:25;;;;;;;42.72;24.75;;;-2.20;64.50;;;;;;5044074;28;20104;-51
2022/12/16 03:22:54;;;;;;;49.80;25.35;;;-2.20;64.50;;;;;;5046133;28;20037;-52
2022/12/16 03:25:22;;;;;;;49.42;26.35;;;-2.20;64.50;;;;;;5043260;28;20045;-57
2022/12/16 03:28:14;;;;;;;46.35;24.40;;;-2.20;64.60;;;;;;5050861;28;20052;-55
2022/12/16 03:30:46;;;;;;;46.38;22.65;;;-2.20;64.60;;;;;;5022927;28;20058;-55
2022/12/16 03:33:28;;;;;;;44.08;23.85;;;-2.10;64.70;;;;;;5032272;28;20087;-56
2022/12/16 03:36:09;;;;;;;46.85;23.00;;;-2.10;64.80;;;;;;5042382;28;20094;-59
2022/12/16 03:38:37;;;;;;;42.00;21.27;;;-2.10;64.90;;;;;;5043713;28;20116;-57
2022/12/16 03:41:06;;;;;;;41.38;22.83;;;-2.10;65.00;;;;;;5050199;28;20149;-53
2022/12/16 03:43:33;;;;;;;42.20;22.10;;;-2.00;65.20;;;;;;5042586;28;20051;-52
2022/12/16 03:46:04;;;;;;;42.13;23.35;;;-2.00;65.20;;;;;;5044916;28;20579;-52
2022/12/16 03:48:32;;;;;;;39.30;23.42;;;-2.00;65.20;;;;;;5043149;28;20049;-55
2022/12/16 03:51:02;;;;;;;38.45;21.15;;;-1.90;65.20;;;;;;5032013;28;20123;-56
2022/12/16 03:53:36;;;;;;;39.88;21.60;;;-1.90;65.20;;;;;;5034107;28;20080;-52
2022/12/16 03:56:03;;;;;;;41.97;21.63;;;-1.90;65.20;;;;;;5038978;28;20037;-55
2022/12/16 03:58:30;;;;;;;40.90;22.05;;;-1.90;65.20;;;;;;5015490;28;20590;-59
2022/12/16 04:00:56;;;;;;;40.30;21.48;;;-1.90;65.20;;;;;;5037740;28;20041;-53
2022/12/16 04:03:25;;;;;;;34.55;20.17;;;-1.90;65.20;;;;;;5046784;28;20417;-54
2022/12/16 04:05:52;;;;;;;40.47;22.48;;;-1.90;65.10;;;;;;5050802;28;20071;-53
2022/12/16 04:08:19;;;;;;;34.13;20.60;;;-1.90;65.10;;;;;;5032410;28;20052;-54
2022/12/16 04:24:38;;;;;;;32.33;18.52;;;-1.90;65.00;;;;;;5011182;28;20088;-55
2022/12/16 04:27:23;;;;;;;42.10;21.67;;;-2.00;64.90;;;;;;5023062;28;20572;-54
